Portada
METAR-TAF:

METAR-TAF

Aeroports :

Binghamton, Nova York, Estats Units d'Amèrica

latitud: 42-12-28N, longitud: 075-58-53W, altitud: 496 m

Observació

L'informe es va fer fa 59 minuts, a les 06:53 UTC
Vent 5 kt del Oest
Temperatura -9°C
Humitat 79%
Pressió 1027 hPa
Visibilitat: 16.1 km
Cel clar

METAR: KBGM 220653Z AUTO 26005KT 10SM CLR M09/M12 A3032 RMK AO2 SLP294 T10941122

Hora: 02:52 (07:52 UTC)

Pronòstic

L'informe es va fer fa 1 hora i 58 minuts, a les 05:54 UTC
Pronòstic vàlid del 22 a les 06 UTC al 23 a les 06 UTC
Vent 4 kt del Oest/Sud-Oest
Visibilitat: 10 km
Cel clar
A partir de les 22 a les 1300 UTC
Vent 6 kt del Sud
Visibilitat: 10 km
Núvols disperses a una alçada de 18000 ft

TAF: KBGM 220554Z 2206/2306 24004KT P6SM SKC FM221300 19006KT P6SM SCT180

Observacions i pronòstics meteorològics de més de 4000 aeroports (METAR i TAF).

Les estacions disponibles són els punts grocs i vermells al mapa.

Posi el ratolí al punt desitjat per veure el nom de l'estació.

Feu clic per veure les observacions i els pronòstics meteorològics.

Per canviar el mapa: feu clic els botons verds amb una creu de color negre per apropar; al botó verd amb un guió per allunyar la imatge; o en les fletxes verdes per a mapes adjacents.


METAR-TAF: